createdAt,value
2022-09-15T00:01:24.687Z,2.72
2022-09-15T00:03:56.480Z,2.75
2022-09-15T00:06:32.791Z,2.70
2022-09-15T00:09:04.681Z,3.05
2022-09-15T00:11:40.993Z,3.03
2022-09-15T00:14:12.703Z,2.90
2022-09-15T00:16:44.348Z,2.83
2022-09-15T00:19:17.960Z,2.67
2022-09-15T00:21:49.554Z,2.72
2022-09-15T00:24:21.302Z,2.40
2022-09-15T00:26:52.876Z,2.70
2022-09-15T00:29:24.523Z,2.47
2022-09-15T00:31:56.219Z,2.70
2022-09-15T00:34:30.965Z,2.67
2022-09-15T00:37:02.644Z,2.50
2022-09-15T00:39:34.633Z,2.75
2022-09-15T00:42:07.521Z,3.00
2022-09-15T00:44:58.326Z,2.78
2022-09-15T00:47:40.772Z,2.83
2022-09-15T00:50:16.674Z,2.50
2022-09-15T00:53:00.468Z,2.40
2022-09-15T00:55:36.061Z,2.60
2022-09-15T00:58:11.878Z,2.20
2022-09-15T01:00:55.551Z,2.22
2022-09-15T01:03:32.633Z,2.17
2022-09-15T01:06:12.048Z,2.45
2022-09-15T01:08:51.411Z,2.42
2022-09-15T01:11:23.122Z,2.30
2022-09-15T01:13:55.058Z,2.10
2022-09-15T01:16:51.563Z,2.33
2022-09-15T01:19:49.785Z,2.10
2022-09-15T01:22:59.986Z,1.90
2022-09-15T01:26:02.770Z,2.10
2022-09-15T01:29:01.917Z,1.90
2022-09-15T01:32:05.770Z,1.90
2022-09-15T01:34:44.551Z,2.10
2022-09-15T01:37:21.156Z,2.10
2022-09-15T01:39:54.459Z,1.90
2022-09-15T01:42:28.608Z,2.00
2022-09-15T01:45:08.936Z,1.77
2022-09-15T01:47:41.972Z,1.98
2022-09-15T01:50:18.924Z,2.40
2022-09-15T01:52:54.603Z,2.22
2022-09-15T01:55:41.446Z,2.40
2022-09-15T01:58:13.091Z,2.40
2022-09-15T02:00:49.996Z,3.15
2022-09-15T02:03:32.102Z,3.30
2022-09-15T02:06:15.860Z,2.80
2022-09-15T02:09:03.066Z,3.30
2022-09-15T02:11:36.845Z,4.10
2022-09-15T02:14:17.371Z,3.60
2022-09-15T02:16:52.792Z,3.78
2022-09-15T02:19:41.825Z,4.22
2022-09-15T02:22:23.578Z,4.32
2022-09-15T02:25:05.769Z,4.50
2022-09-15T02:27:44.659Z,3.90
2022-09-15T02:30:19.677Z,4.28
2022-09-15T02:33:00.840Z,4.43
2022-09-15T02:35:36.312Z,4.40
2022-09-15T02:38:09.990Z,4.10
2022-09-15T02:40:43.752Z,4.68
2022-09-15T02:43:17.837Z,4.15
2022-09-15T02:45:49.830Z,3.78
2022-09-15T02:48:22.136Z,3.95
2022-09-15T02:50:53.791Z,3.75
2022-09-15T02:53:25.469Z,3.75
2022-09-15T02:55:57.969Z,3.10
2022-09-15T02:58:29.928Z,3.65
2022-09-15T03:01:04.305Z,3.22
2022-09-15T03:06:18.481Z,2.53
2022-09-15T03:08:53.134Z,2.78
2022-09-15T03:11:26.897Z,2.30
2022-09-15T03:14:07.990Z,2.10
2022-09-15T03:16:40.221Z,2.42
2022-09-15T03:19:12.381Z,2.33
2022-09-15T03:21:44.023Z,1.92
2022-09-15T03:24:15.883Z,2.00
2022-09-15T03:26:48.539Z,1.88
2022-09-15T03:29:20.219Z,2.45
2022-09-15T03:31:52.376Z,2.20
2022-09-15T03:34:23.998Z,2.35
2022-09-15T03:36:55.617Z,2.20
2022-09-15T03:39:27.241Z,2.20
2022-09-15T03:41:58.945Z,1.90
2022-09-15T03:44:32.263Z,2.25
2022-09-15T03:47:04.090Z,2.00
2022-09-15T03:49:35.769Z,2.17
2022-09-15T03:52:07.385Z,1.80
2022-09-15T03:54:39.915Z,2.03
2022-09-15T03:57:11.563Z,1.98
2022-09-15T03:59:43.251Z,1.92
2022-09-15T04:02:14.999Z,2.47
2022-09-15T04:04:49.305Z,2.05
2022-09-15T04:07:23.832Z,2.60
2022-09-15T04:12:28.602Z,1.70
2022-09-15T04:15:00.870Z,2.20
2022-09-15T04:17:32.774Z,1.85
2022-09-15T04:20:04.625Z,1.90
2022-09-15T04:22:36.358Z,2.30
2022-09-15T04:25:09.344Z,2.22
2022-09-15T04:27:41.018Z,2.08
2022-09-15T04:30:16.709Z,2.08
2022-09-15T04:32:48.789Z,2.10
2022-09-15T04:35:22.064Z,2.15
2022-09-15T04:37:54.646Z,1.95
2022-09-15T04:40:26.343Z,2.10
2022-09-15T04:42:58.231Z,1.88
2022-09-15T04:45:29.856Z,2.20
2022-09-15T04:48:01.601Z,2.50
2022-09-15T04:50:34.009Z,2.47
2022-09-15T04:53:07.328Z,2.40
2022-09-15T04:55:39.441Z,2.63
2022-09-15T04:58:13.202Z,2.58
2022-09-15T05:00:44.873Z,3.08
2022-09-15T05:03:16.540Z,3.30
2022-09-15T05:05:48.286Z,3.67
2022-09-15T05:08:19.924Z,3.90
2022-09-15T05:10:51.594Z,4.00
2022-09-15T05:13:23.211Z,4.50
2022-09-15T05:15:54.990Z,6.50
2022-09-15T05:18:26.593Z,4.40
2022-09-15T05:20:59.857Z,3.92
2022-09-15T05:23:33.150Z,4.35
2022-09-15T05:26:11.856Z,4.50
2022-09-15T05:28:43.734Z,4.80
2022-09-15T05:31:21.477Z,4.90
2022-09-15T05:33:53.625Z,4.50
2022-09-15T05:36:25.586Z,4.32
2022-09-15T05:38:57.821Z,4.97
2022-09-15T05:41:29.835Z,5.15
2022-09-15T05:44:01.649Z,5.20
2022-09-15T05:46:34.382Z,4.97
2022-09-15T05:49:07.291Z,4.57
2022-09-15T05:51:39.216Z,4.25
2022-09-15T05:54:10.817Z,4.07
2022-09-15T05:56:44.574Z,4.00
2022-09-15T05:59:16.223Z,3.60
2022-09-15T06:01:48.050Z,3.53
2022-09-15T06:04:19.745Z,3.55
2022-09-15T06:06:51.392Z,3.20
2022-09-15T06:09:23.073Z,2.90
2022-09-15T06:11:57.402Z,2.95
2022-09-15T06:14:28.960Z,2.97
2022-09-15T06:17:00.575Z,2.60
2022-09-15T06:19:33.423Z,2.80
2022-09-15T06:22:05.041Z,2.50
2022-09-15T06:24:36.617Z,2.70
2022-09-15T06:27:08.225Z,2.70
2022-09-15T06:29:39.950Z,2.33
2022-09-15T06:32:11.625Z,2.70
2022-09-15T06:34:43.269Z,2.90
2022-09-15T06:37:15.862Z,2.40
2022-09-15T06:39:49.748Z,3.00
2022-09-15T06:42:21.467Z,3.05
2022-09-15T06:44:53.153Z,2.95
2022-09-15T06:47:24.798Z,3.50
2022-09-15T06:49:56.475Z,3.40
2022-09-15T06:52:28.140Z,3.30
2022-09-15T06:55:00.088Z,3.47
2022-09-15T06:57:31.759Z,3.10
2022-09-15T07:00:05.290Z,3.42
2022-09-15T07:02:36.976Z,4.37
2022-09-15T07:05:10.940Z,5.00
2022-09-15T07:07:42.795Z,5.20
2022-09-15T07:10:14.396Z,5.75
2022-09-15T07:12:46.304Z,5.40
2022-09-15T07:15:17.950Z,5.05
2022-09-15T07:17:49.565Z,4.05
2022-09-15T07:20:24.193Z,4.30
2022-09-15T07:22:55.867Z,4.38
2022-09-15T07:25:27.443Z,4.18
2022-09-15T07:27:59.099Z,4.53
2022-09-15T07:30:30.689Z,4.68
2022-09-15T07:33:02.319Z,4.30
2022-09-15T07:35:34.479Z,4.20
2022-09-15T07:38:06.135Z,3.85
2022-09-15T07:40:38.431Z,3.50
2022-09-15T07:43:10.201Z,3.90
2022-09-15T07:45:42.487Z,4.00
2022-09-15T07:48:14.173Z,3.75
2022-09-15T07:50:46.987Z,3.08
2022-09-15T07:53:18.568Z,2.95
2022-09-15T07:55:53.645Z,2.80
2022-09-15T07:58:25.540Z,3.28
2022-09-15T08:01:05.191Z,3.10
2022-09-15T08:03:40.801Z,2.70
2022-09-15T08:06:13.411Z,2.70
2022-09-15T08:08:45.687Z,2.47
2022-09-15T08:11:19.691Z,2.80
2022-09-15T08:13:52.495Z,2.63
2022-09-15T08:16:24.863Z,3.28
2022-09-15T08:18:56.891Z,2.80
2022-09-15T08:21:31.786Z,2.85
2022-09-15T08:24:06.502Z,2.67
2022-09-15T08:26:38.522Z,3.10
2022-09-15T08:29:10.138Z,2.90
2022-09-15T08:31:43.032Z,3.15
2022-09-15T08:34:16.550Z,2.70
2022-09-15T08:36:48.234Z,3.20
2022-09-15T08:39:19.887Z,2.88
2022-09-15T08:41:53.987Z,2.70
2022-09-15T08:44:44.788Z,2.90
2022-09-15T08:47:43.150Z,2.83
2022-09-15T08:50:27.309Z,3.22
2022-09-15T08:53:06.648Z,2.95
2022-09-15T08:55:45.556Z,2.90
2022-09-15T08:58:23.199Z,2.50
2022-09-15T09:01:26.890Z,2.65
2022-09-15T09:04:22.503Z,2.70
2022-09-15T09:07:24.970Z,3.03
2022-09-15T09:10:15.811Z,2.88
2022-09-15T09:12:52.963Z,3.20
2022-09-15T09:15:24.599Z,2.83
2022-09-15T09:18:02.254Z,3.00
2022-09-15T09:20:36.530Z,2.72
2022-09-15T09:23:14.578Z,2.97
2022-09-15T09:25:47.145Z,3.17
2022-09-15T09:29:00.399Z,3.45
2022-09-15T09:31:36.087Z,3.60
2022-09-15T09:34:22.343Z,3.75
2022-09-15T09:37:08.654Z,3.53
2022-09-15T09:39:40.387Z,3.72
2022-09-15T09:42:16.201Z,3.70
2022-09-15T09:44:47.878Z,3.50
2022-09-15T09:47:20.565Z,3.65
2022-09-15T09:49:52.351Z,3.10
2022-09-15T09:52:38.467Z,2.75
2022-09-15T09:55:30.307Z,2.90
2022-09-15T09:58:14.543Z,2.78
2022-09-15T10:00:47.324Z,3.47
2022-09-15T10:03:32.171Z,3.20
2022-09-15T10:06:15.903Z,3.45
2022-09-15T10:09:05.216Z,2.90
2022-09-15T10:12:00.100Z,3.17
2022-09-15T10:14:42.137Z,4.05
2022-09-15T10:17:15.649Z,3.95
2022-09-15T10:19:54.233Z,3.53
2022-09-15T10:22:33.788Z,3.40
2022-09-15T10:25:20.498Z,3.53
2022-09-15T10:28:14.129Z,3.35
2022-09-15T10:31:29.547Z,3.50
2022-09-15T10:34:25.313Z,3.33
2022-09-15T10:37:15.198Z,3.05
2022-09-15T10:39:52.355Z,3.72
2022-09-15T10:42:46.103Z,3.42
2022-09-15T10:45:34.220Z,2.85
2022-09-15T10:48:14.875Z,3.38
2022-09-15T10:50:54.636Z,3.45
2022-09-15T10:53:41.532Z,3.85
2022-09-15T10:56:38.902Z,3.58
2022-09-15T10:59:23.793Z,4.05
2022-09-15T11:04:49.692Z,3.33
2022-09-15T11:07:46.282Z,3.53
2022-09-15T11:10:31.996Z,3.20
2022-09-15T11:13:17.427Z,3.17
2022-09-15T11:16:11.916Z,3.47
2022-09-15T11:18:55.429Z,3.20
2022-09-15T11:21:35.127Z,3.58
2022-09-15T11:24:28.386Z,3.60
2022-09-15T11:27:11.353Z,3.22
2022-09-15T11:30:01.209Z,3.60
2022-09-15T11:32:40.022Z,3.55
2022-09-15T11:35:33.284Z,3.40
2022-09-15T11:38:13.038Z,3.75
2022-09-15T11:40:52.751Z,3.38
2022-09-15T11:43:37.714Z,3.95
2022-09-15T11:48:56.531Z,4.22
2022-09-15T11:51:34.974Z,4.78
2022-09-15T11:54:13.784Z,4.53
2022-09-15T11:56:47.403Z,4.53
2022-09-15T11:59:29.266Z,5.27
2022-09-15T12:02:24.657Z,4.28
2022-09-15T12:05:11.967Z,4.75
2022-09-15T12:08:06.761Z,4.90
2022-09-15T12:10:43.414Z,4.82
2022-09-15T12:13:19.947Z,5.47
2022-09-15T12:15:53.463Z,4.95
2022-09-15T12:18:41.973Z,5.30
2022-09-15T12:21:27.832Z,4.88
2022-09-15T12:24:58.877Z,5.50
2022-09-15T12:28:03.661Z,4.82
2022-09-15T12:30:43.326Z,5.03
2022-09-15T12:34:30.051Z,6.07
2022-09-15T12:37:19.617Z,5.53
2022-09-15T12:39:54.567Z,5.15
2022-09-15T12:46:01.190Z,5.30
2022-09-15T12:51:53.874Z,5.53
2022-09-15T12:54:46.512Z,5.38
2022-09-15T12:58:04.032Z,5.43
2022-09-15T13:01:23.190Z,5.22
2022-09-15T13:03:57.902Z,6.35
2022-09-15T13:06:34.111Z,6.03
2022-09-15T13:09:06.106Z,5.43
2022-09-15T13:11:46.403Z,5.93
2022-09-15T13:14:35.678Z,5.68
2022-09-15T13:17:14.443Z,6.60
2022-09-15T13:19:49.167Z,6.25
2022-09-15T13:22:31.261Z,6.00
2022-09-15T13:25:19.689Z,7.53
2022-09-15T13:27:57.769Z,6.80
2022-09-15T13:31:02.238Z,6.82
2022-09-15T13:40:08.671Z,6.80
2022-09-15T13:43:15.649Z,5.95
2022-09-15T13:45:54.963Z,6.40
2022-09-15T13:49:02.623Z,6.47
2022-09-15T13:51:35.014Z,6.45
2022-09-15T13:54:15.202Z,6.28
2022-09-15T13:56:49.104Z,6.78
2022-09-15T13:59:25.518Z,6.68
2022-09-15T14:02:00.351Z,6.53
2022-09-15T14:04:32.278Z,7.82
2022-09-15T14:07:03.935Z,6.35
2022-09-15T14:09:44.711Z,6.95
2022-09-15T14:12:18.237Z,6.20
2022-09-15T14:14:58.179Z,6.00
2022-09-15T14:17:31.545Z,6.30
2022-09-15T14:20:06.091Z,6.13
2022-09-15T14:25:16.807Z,6.63
2022-09-15T14:27:51.302Z,6.70
2022-09-15T14:32:59.681Z,6.18
2022-09-15T14:35:38.163Z,7.07
2022-09-15T14:38:22.492Z,6.95
2022-09-15T14:40:56.904Z,6.72
2022-09-15T14:43:40.334Z,6.30
2022-09-15T14:46:20.840Z,6.75
2022-09-15T14:48:52.524Z,7.25
2022-09-15T14:51:28.561Z,7.38
2022-09-15T14:54:03.081Z,7.70
2022-09-15T14:59:15.222Z,6.85
2022-09-15T15:02:00.889Z,7.78
2022-09-15T15:04:41.260Z,7.90
2022-09-15T15:07:22.636Z,8.70
2022-09-15T15:10:06.615Z,8.40
2022-09-15T15:12:45.411Z,11.00
2022-09-15T15:15:18.101Z,10.85
2022-09-15T15:17:54.525Z,10.93
2022-09-15T15:20:30.206Z,12.57
2022-09-15T15:23:23.324Z,13.20
2022-09-15T15:26:29.719Z,12.48
2022-09-15T15:29:01.647Z,13.20
2022-09-15T15:31:33.680Z,14.15
2022-09-15T15:34:19.598Z,13.63
2022-09-15T15:36:51.163Z,13.95
2022-09-15T15:39:27.589Z,13.07
2022-09-15T15:42:02.623Z,12.30
2022-09-15T15:44:37.319Z,13.93
2022-09-15T15:47:31.536Z,12.68
2022-09-15T15:50:14.296Z,11.82
2022-09-15T15:52:47.614Z,11.93
2022-09-15T15:55:24.810Z,12.15
2022-09-15T15:57:56.481Z,12.55
2022-09-15T16:00:45.123Z,13.07
2022-09-15T16:03:17.925Z,10.68
2022-09-15T16:05:57.018Z,12.07
2022-09-15T16:08:31.970Z,11.98
2022-09-15T16:11:04.573Z,11.80
2022-09-15T16:13:36.265Z,11.90
2022-09-15T16:16:20.192Z,12.95
2022-09-15T16:18:52.437Z,11.27
2022-09-15T16:21:32.505Z,11.35
2022-09-15T16:24:15.492Z,11.32
2022-09-15T16:26:49.543Z,11.20
2022-09-15T16:29:28.109Z,9.93
2022-09-15T16:31:59.910Z,11.00
2022-09-15T16:34:31.522Z,10.20
2022-09-15T16:37:03.151Z,10.07
2022-09-15T16:39:34.740Z,11.18
2022-09-15T16:42:06.571Z,9.93
2022-09-15T16:44:38.724Z,9.32
2022-09-15T16:47:10.436Z,8.95
2022-09-15T16:49:42.218Z,9.50
2022-09-15T16:52:14.017Z,8.27
2022-09-15T16:54:45.732Z,9.23
2022-09-15T16:57:19.467Z,9.63
2022-09-15T16:59:51.114Z,8.40
2022-09-15T17:02:22.889Z,8.82
2022-09-15T17:04:57.185Z,7.43
2022-09-15T17:07:29.275Z,6.70
2022-09-15T17:10:03.703Z,6.88
2022-09-15T17:12:37.054Z,6.50
2022-09-15T17:15:20.155Z,6.55
2022-09-15T17:17:52.136Z,6.35
2022-09-15T17:20:25.157Z,5.97
2022-09-15T17:22:57.881Z,7.13
2022-09-15T17:25:35.525Z,5.82
2022-09-15T17:28:08.163Z,5.80
2022-09-15T17:30:45.866Z,5.70
2022-09-15T17:33:19.182Z,5.70
2022-09-15T17:35:51.572Z,5.85
2022-09-15T17:38:23.949Z,5.97
2022-09-15T17:41:22.766Z,6.63
2022-09-15T17:43:54.523Z,6.45
2022-09-15T17:46:26.427Z,6.78
2022-09-15T17:48:58.339Z,6.45
2022-09-15T17:51:34.078Z,7.07
2022-09-15T17:54:07.595Z,6.95
2022-09-15T17:56:42.083Z,6.87
2022-09-15T17:59:16.380Z,6.90
2022-09-15T18:01:48.415Z,6.85
2022-09-15T18:04:20.209Z,7.30
2022-09-15T18:06:52.088Z,9.80
2022-09-15T18:09:23.974Z,9.07
2022-09-15T18:11:55.707Z,7.53
2022-09-15T18:14:31.676Z,6.88
2022-09-15T18:17:05.439Z,7.03
2022-09-15T18:19:37.406Z,7.18
2022-09-15T18:22:13.161Z,6.85
2022-09-15T18:24:47.037Z,6.68
2022-09-15T18:27:18.751Z,6.93
2022-09-15T18:29:50.507Z,7.45
2022-09-15T18:32:22.242Z,7.22
2022-09-15T18:34:53.986Z,6.22
2022-09-15T18:37:25.672Z,6.53
2022-09-15T18:40:08.567Z,7.10
2022-09-15T18:42:40.833Z,6.78
2022-09-15T18:45:15.830Z,6.65
2022-09-15T18:47:49.156Z,6.30
2022-09-15T18:50:25.236Z,5.28
2022-09-15T18:52:56.827Z,5.38
2022-09-15T18:55:32.926Z,5.75
2022-09-15T18:58:06.724Z,5.25
2022-09-15T19:00:40.784Z,5.00
2022-09-15T19:03:14.544Z,5.53
2022-09-15T19:05:46.417Z,5.40
2022-09-15T19:08:18.149Z,4.30
2022-09-15T19:11:00.200Z,5.20
2022-09-15T19:13:35.668Z,6.70
2022-09-15T19:16:10.928Z,5.40
2022-09-15T19:18:46.229Z,4.82
2022-09-15T19:21:18.593Z,4.65
2022-09-15T19:23:50.391Z,4.25
2022-09-15T19:26:28.887Z,4.30
2022-09-15T19:29:00.485Z,4.38
2022-09-15T19:31:32.344Z,4.50
2022-09-15T19:34:04.495Z,4.00
2022-09-15T19:36:36.124Z,4.22
2022-09-15T19:39:07.945Z,4.40
2022-09-15T19:41:39.639Z,4.00
2022-09-15T19:44:11.302Z,4.03
2022-09-15T19:46:43.439Z,3.45
2022-09-15T19:49:15.178Z,4.07
2022-09-15T19:51:47.057Z,3.90
2022-09-15T19:54:26.284Z,3.30
2022-09-15T19:56:58.168Z,3.20
2022-09-15T19:59:31.538Z,3.05
2022-09-15T20:02:03.783Z,3.25
2022-09-15T20:04:35.417Z,3.08
2022-09-15T20:07:09.772Z,3.15
2022-09-15T20:09:41.343Z,2.83
2022-09-15T20:12:13.403Z,2.30
2022-09-15T20:14:45.166Z,2.42
2022-09-15T20:17:16.932Z,2.50
2022-09-15T20:19:51.328Z,1.92
2022-09-15T20:22:23.981Z,2.03
2022-09-15T20:24:56.119Z,2.10
2022-09-15T20:27:27.889Z,1.85
2022-09-15T20:29:59.607Z,2.45
2022-09-15T20:32:33.273Z,2.80
2022-09-15T20:35:05.294Z,2.33
2022-09-15T20:37:37.756Z,2.47
2022-09-15T20:40:09.993Z,2.10
2022-09-15T20:42:41.687Z,2.28
2022-09-15T20:45:13.454Z,2.03
2022-09-15T20:47:45.096Z,2.10
2022-09-15T20:50:20.184Z,2.25
2022-09-15T20:52:52.076Z,3.08
2022-09-15T20:55:25.913Z,2.38
2022-09-15T20:57:57.516Z,1.98
2022-09-15T21:00:33.633Z,2.05
2022-09-15T21:03:05.536Z,2.35
2022-09-15T21:05:37.134Z,2.20
2022-09-15T21:08:12.078Z,2.35
2022-09-15T21:10:44.996Z,2.33
2022-09-15T21:13:16.630Z,2.25
2022-09-15T21:15:57.070Z,2.08
2022-09-15T21:18:33.873Z,1.92
2022-09-15T21:21:11.783Z,1.90
2022-09-15T21:23:46.069Z,2.03
2022-09-15T21:26:20.185Z,1.90
2022-09-15T21:28:53.039Z,2.08
2022-09-15T21:31:27.244Z,2.63
2022-09-15T21:33:59.573Z,2.33
2022-09-15T21:36:31.901Z,2.72
2022-09-15T21:39:03.597Z,2.10
2022-09-15T21:41:35.915Z,2.33
2022-09-15T21:44:07.837Z,2.13
2022-09-15T21:46:39.794Z,1.92
2022-09-15T21:49:11.394Z,2.05
2022-09-15T21:51:42.993Z,2.15
2022-09-15T21:54:15.078Z,2.17
2022-09-15T21:56:46.735Z,2.47
2022-09-15T21:59:18.497Z,2.35
2022-09-15T22:01:50.144Z,2.10
2022-09-15T22:04:21.849Z,2.15
2022-09-15T22:06:53.968Z,2.15
2022-09-15T22:09:26.309Z,2.10
2022-09-15T22:11:57.972Z,1.92
2022-09-15T22:14:31.046Z,2.20
2022-09-15T22:17:02.652Z,2.35
2022-09-15T22:19:34.284Z,2.70
2022-09-15T22:22:06.167Z,2.50
2022-09-15T22:24:38.018Z,2.40
2022-09-15T22:27:09.606Z,2.72
2022-09-15T22:29:41.220Z,2.30
2022-09-15T22:32:12.781Z,2.40
2022-09-15T22:34:45.624Z,2.55
2022-09-15T22:37:17.196Z,2.33
2022-09-15T22:39:58.820Z,2.42
2022-09-15T22:42:31.003Z,3.20
2022-09-15T22:45:02.883Z,2.40
2022-09-15T22:47:34.511Z,1.98
2022-09-15T22:50:06.258Z,2.40
2022-09-15T22:52:37.836Z,2.08
2022-09-15T22:55:09.473Z,3.05
2022-09-15T22:57:41.711Z,2.70
2022-09-15T23:00:13.860Z,2.65
2022-09-15T23:02:46.661Z,2.63
2022-09-15T23:05:18.294Z,2.75
2022-09-15T23:07:49.993Z,2.70
2022-09-15T23:10:21.635Z,3.20
2022-09-15T23:12:53.238Z,2.95
2022-09-15T23:15:25.113Z,3.50
2022-09-15T23:17:56.737Z,3.47
2022-09-15T23:20:28.444Z,3.13
2022-09-15T23:23:00.224Z,4.32
2022-09-15T23:25:31.975Z,3.08
2022-09-15T23:28:03.565Z,2.53
2022-09-15T23:30:35.189Z,2.67
2022-09-15T23:33:06.802Z,2.42
2022-09-15T23:35:38.428Z,2.55
2022-09-15T23:38:10.056Z,3.25
2022-09-15T23:40:42.897Z,3.08
2022-09-15T23:43:15.499Z,2.35
2022-09-15T23:45:47.460Z,2.28
2022-09-15T23:48:19.472Z,2.30
2022-09-15T23:50:51.590Z,2.35
2022-09-15T23:53:24.096Z,2.28
2022-09-15T23:55:55.789Z,2.00
2022-09-15T23:58:27.435Z,2.20
